Time;durP1;ratioP1;P1;durP2;ratioP2;P2;SDS_P1;SDS_P2;PMS_P1;PMS_P2;Temp;Humidity;BMP_temperature;BMP_pressure;BME280_temperature;BME280_humidity;BME280_pressure;Samples;Min_cycle;Max_cycle;Signal;HPM_P1;HPM_P2
2021/08/20 00:03:36;;;;;;;10.4;4;;;;;;;17.61;100;98586.41;;;;
2021/08/20 00:13:35;;;;;;;12.5;4.3;;;;;;;17.58;100;98587.13;;;;
2021/08/20 00:23:35;;;;;;;10.7;4.1;;;;;;;17.32;100;98578.68;;;;
2021/08/20 00:33:36;;;;;;;4.9;2.6;;;;;;;17.47;100;98586.04;;;;
2021/08/20 00:43:35;;;;;;;3.9;2.8;;;;;;;17.53;100;98579.97;;;;
2021/08/20 00:53:34;;;;;;;6;3.4;;;;;;;17.47;100;98586.04;;;;
2021/08/20 01:03:34;;;;;;;4.5;2.9;;;;;;;17.51;100;98578.75;;;;
2021/08/20 01:13:34;;;;;;;6.3;3.3;;;;;;;17.48;100;98577.53;;;;
2021/08/20 01:23:34;;;;;;;5.7;2.8;;;;;;;17.44;100;98586.75;;;;
2021/08/20 01:33:33;;;;;;;4.7;3.3;;;;;;;17.47;100;98588.77;;;;
2021/08/20 01:43:33;;;;;;;5.4;3.3;;;;;;;17.41;100;98582.01;;;;
2021/08/20 01:53:33;;;;;;;5;2.7;;;;;;;17.38;100;98580.78;;;;
2021/08/20 02:03:33;;;;;;;5.1;2.8;;;;;;;17.35;100;98576.05;;;;
2021/08/20 02:13:32;;;;;;;7;3.4;;;;;;;17.29;100;98571.98;;;;
2021/08/20 02:23:34;;;;;;;6.1;2.6;;;;;;;17.04;100;98565.91;;;;
2021/08/20 02:33:33;;;;;;;4.8;3;;;;;;;17.11;100;98574.26;;;;
2021/08/20 02:43:32;;;;;;;6.2;3.2;;;;;;;17.03;100;98560.83;;;;
2021/08/20 02:53:31;;;;;;;6;3;;;;;;;17.13;100;98568.47;;;;
2021/08/20 03:03:31;;;;;;;6.8;4;;;;;;;17;100;98573.22;;;;
2021/08/20 03:13:31;;;;;;;5.3;2.7;;;;;;;16.97;100;98579.33;;;;
2021/08/20 03:23:30;;;;;;;6.5;3.6;;;;;;;16.98;100;98572.76;;;;
2021/08/20 03:33:30;;;;;;;4.7;2.6;;;;;;;16.82;100;98573.88;;;;
2021/08/20 03:43:30;;;;;;;7.5;3.5;;;;;;;16.95;100;98576.18;;;;
2021/08/20 03:53:30;;;;;;;5.8;3;;;;;;;16.97;100;98594.91;;;;
2021/08/20 04:03:29;;;;;;;5.7;3;;;;;;;16.95;100;98595.23;;;;
2021/08/20 04:13:29;;;;;;;7.1;3.7;;;;;;;16.86;100;98594.63;;;;
2021/08/20 04:23:29;;;;;;;6.1;3.6;;;;;;;16.98;100;98607.36;;;;
2021/08/20 04:33:28;;;;;;;6.3;3.2;;;;;;;16.94;100;98596.38;;;;
2021/08/20 04:43:28;;;;;;;7.5;3.8;;;;;;;16.78;100;98598.28;;;;
2021/08/20 04:53:29;;;;;;;7.1;3;;;;;;;17.04;100;98598.58;;;;
2021/08/20 05:03:27;;;;;;;10.5;5.5;;;;;;;17.26;100;98605.38;;;;
2021/08/20 05:13:27;;;;;;;7.7;4.5;;;;;;;17.49;100;98617.23;;;;
2021/08/20 05:23:27;;;;;;;8.9;4.9;;;;;;;17.56;100;98617.44;;;;
2021/08/20 05:33:27;;;;;;;9.4;4.6;;;;;;;17.79;100;98631.25;;;;
2021/08/20 05:43:27;;;;;;;6.7;4.2;;;;;;;18.03;100;98617.39;;;;
2021/08/20 05:53:27;;;;;;;9.2;5.3;;;;;;;18.02;100;98626.72;;;;
2021/08/20 06:03:27;;;;;;;6.7;4.6;;;;;;;18.22;100;98618.59;;;;
2021/08/20 06:13:26;;;;;;;7.3;4.6;;;;;;;18.42;100;98629.17;;;;
2021/08/20 06:23:26;;;;;;;8.4;4.3;;;;;;;18.88;100;98626.61;;;;
2021/08/20 06:33:26;;;;;;;7.1;3.7;;;;;;;19.07;100;98635.56;;;;
2021/08/20 06:43:26;;;;;;;8.8;4.4;;;;;;;19.15;100;98646.63;;;;
2021/08/20 06:53:28;;;;;;;5;3.5;;;;;;;19.51;100;98654.33;;;;
2021/08/20 07:03:27;;;;;;;6.8;3.5;;;;;;;19.86;100;98651.39;;;;
2021/08/20 07:13:27;;;;;;;5;3;;;;;;;19.78;100;98650.51;;;;
2021/08/20 07:23:27;;;;;;;8.4;2.9;;;;;;;20.17;100;98659.29;;;;
2021/08/20 07:33:28;;;;;;;5.8;2.9;;;;;;;20.37;100;98662.75;;;;
2021/08/20 07:43:28;;;;;;;12.1;4.6;;;;;;;20.94;100;98662.3;;;;
2021/08/20 07:53:28;;;;;;;9.3;3.3;;;;;;;21.59;100;98673.58;;;;
2021/08/20 08:03:29;;;;;;;5;3.2;;;;;;;22;100;98668.89;;;;
2021/08/20 08:13:29;;;;;;;6;2.5;;;;;;;22.84;100;98675.29;;;;
2021/08/20 08:23:30;;;;;;;7.1;2.6;;;;;;;23.51;100;98686.5;;;;
2021/08/20 08:33:30;;;;;;;4.1;2.5;;;;;;;23.57;100;98684.16;;;;
2021/08/20 08:43:31;;;;;;;5.2;2.8;;;;;;;23.76;100;98692.83;;;;
2021/08/20 08:53:32;;;;;;;4.8;2.7;;;;;;;24.1;100;98695.17;;;;
2021/08/20 09:03:33;;;;;;;5.9;3;;;;;;;24.26;100;98693.61;;;;
2021/08/20 09:13:33;;;;;;;6.1;3.2;;;;;;;25.04;100;98701.7;;;;
2021/08/20 09:23:34;;;;;;;5.5;2.3;;;;;;;25.29;100;98704.35;;;;
2021/08/20 09:33:41;;;;;;;3.3;1.5;;;;;;;25.35;97.69336;98686.97;;;;
2021/08/20 09:43:40;;;;;;;6.2;2.7;;;;;;;24.78;100;98669.86;;;;
2021/08/20 09:53:39;;;;;;;7.3;3.4;;;;;;;24.7;100;98667.55;;;;
2021/08/20 10:03:40;;;;;;;59.8;55.5;;;;;;;24.64;100;98663.64;;;;
2021/08/20 10:13:39;;;;;;;6.2;3;;;;;;;24.21;100;98651.92;;;;
2021/08/20 10:23:39;;;;;;;6.7;3.4;;;;;;;24.26;100;98643.27;;;;
2021/08/20 10:33:41;;;;;;;6.1;2.8;;;;;;;24.34;98.60938;98633.79;;;;
2021/08/20 10:43:58;;;;;;;7.5;3.6;;;;;;;24.34;100;98633.79;;;;
2021/08/20 10:53:41;;;;;;;7.5;2.7;;;;;;;24.51;97.58398;98619.96;;;;
2021/08/20 11:03:42;;;;;;;4.3;1.8;;;;;;;24.28;100;98624.37;;;;
2021/08/20 11:13:43;;;;;;;5.3;2.5;;;;;;;24.27;96.01367;98615.31;;;;
2021/08/20 11:33:46;;;;;;;4.5;2.1;;;;;;;24.67;90.38379;98616.77;;;;
2021/08/20 11:43:55;;;;;;;8.4;3.1;;;;;;;24.16;95.83887;98616.54;;;;
2021/08/20 11:53:50;;;;;;;6.1;2.6;;;;;;;24.52;93.11328;98618;;;;
2021/08/20 12:03:52;;;;;;;6.1;2.4;;;;;;;25.19;90.34766;98614.95;;;;
2021/08/20 12:13:53;;;;;;;4.8;2.6;;;;;;;25.89;77.86426;98602.58;;;;
2021/08/20 12:24:05;;;;;;;7.5;2.8;;;;;;;25.85;81.47461;98604.61;;;;
2021/08/20 12:33:56;;;;;;;4.8;2.2;;;;;;;26.5;78.30566;98608.3;;;;
2021/08/20 12:43:51;;;;;;;4.2;1.9;;;;;;;26.51;72.14063;98607.11;;;;
2021/08/20 12:53:51;;;;;;;4.2;2;;;;;;;26.49;75.74414;98603.95;;;;
2021/08/20 13:03:52;;;;;;;4.4;1.6;;;;;;;26.18;76.14844;98600.36;;;;
2021/08/20 13:13:53;;;;;;;10.1;4.4;;;;;;;26.25;73.63281;98599.5;;;;
2021/08/20 13:23:54;;;;;;;4;1.9;;;;;;;25.56;77.53906;98603.27;;;;
2021/08/20 13:33:55;;;;;;;5.3;3;;;;;;;25.23;83.19238;98606.66;;;;
2021/08/20 13:43:55;;;;;;;5.4;1.7;;;;;;;25.46;81.04297;98595.83;;;;
2021/08/20 13:53:56;;;;;;;5;1.7;;;;;;;25.26;82.90625;98595.59;;;;
2021/08/20 14:03:57;;;;;;;5.2;2.4;;;;;;;25.32;80.1543;98590.42;;;;
2021/08/20 14:13:59;;;;;;;4.4;2.1;;;;;;;24.54;81.18164;98588.84;;;;
2021/08/20 14:23:58;;;;;;;4.5;2.1;;;;;;;24.09;84.29395;98589.74;;;;
2021/08/20 14:33:59;;;;;;;4;1.7;;;;;;;23.74;84.41309;98592.57;;;;
2021/08/20 14:44:00;;;;;;;4.5;2.1;;;;;;;23.34;87.70996;98591.75;;;;
2021/08/20 14:54:00;;;;;;;6.8;2.1;;;;;;;23.19;89.20605;98600.35;;;;
2021/08/20 15:04:01;;;;;;;8.4;2.6;;;;;;;23.08;95.61133;98584.63;;;;
2021/08/20 15:14:06;;;;;;;4.4;2.2;;;;;;;22.98;97.01074;98585.39;;;;
2021/08/20 15:24:02;;;;;;;6.3;3.7;;;;;;;22.85;99.77148;98584.19;;;;
2021/08/20 15:34:02;;;;;;;5.3;2.3;;;;;;;22.79;100;98579.47;;;;
2021/08/20 15:44:03;;;;;;;8;3.3;;;;;;;22.65;100;98577.43;;;;
2021/08/20 15:54:05;;;;;;;7.5;2.7;;;;;;;22.51;100;98593.86;;;;
2021/08/20 16:04:04;;;;;;;5.6;2.4;;;;;;;22.36;100;98593;;;;
2021/08/20 16:14:04;;;;;;;8.1;3.4;;;;;;;24.64;95.55859;98594.73;;;;
2021/08/20 16:24:05;;;;;;;11.8;3.8;;;;;;;23.87;96.22949;98588.23;;;;
2021/08/20 16:34:06;;;;;;;9.1;5.1;;;;;;;23.02;100;98580.7;;;;
2021/08/20 16:44:07;;;;;;;6.3;4.3;;;;;;;22.62;100;98597.44;;;;
2021/08/20 16:54:07;;;;;;;7;4;;;;;;;22.19;100;98596.44;;;;
2021/08/20 17:04:07;;;;;;;7.2;4.9;;;;;;;21.83;100;98600.88;;;;
2021/08/20 17:14:07;;;;;;;9.7;6.7;;;;;;;21.63;100;98591.33;;;;
2021/08/20 17:24:08;;;;;;;9.9;7;;;;;;;21.39;100;98594.66;;;;
2021/08/20 17:34:08;;;;;;;16.3;12.8;;;;;;;21.02;100;98587.25;;;;
2021/08/20 17:44:08;;;;;;;11.1;9.2;;;;;;;20.75;100;98602.22;;;;
2021/08/20 17:54:09;;;;;;;11.2;7.6;;;;;;;20.28;100;98594.58;;;;
2021/08/20 18:04:09;;;;;;;8.3;5.2;;;;;;;19.99;100;98603.55;;;;
2021/08/20 18:14:09;;;;;;;7.1;4.3;;;;;;;19.69;100;98622.6;;;;
2021/08/20 18:24:09;;;;;;;6.1;3.9;;;;;;;19.44;100;98629.59;;;;
2021/08/20 18:34:09;;;;;;;6.7;4.9;;;;;;;19.35;100;98634.5;;;;
2021/08/20 18:44:09;;;;;;;9.2;6.3;;;;;;;19.26;100;98637.48;;;;
2021/08/20 18:54:09;;;;;;;10.6;6.9;;;;;;;19.3;100;98643.78;;;;
2021/08/20 19:04:10;;;;;;;8.5;5.8;;;;;;;19.26;100;98647.63;;;;
2021/08/20 19:14:09;;;;;;;7.9;5.1;;;;;;;19.3;100;98649.24;;;;
2021/08/20 19:24:09;;;;;;;9.7;5.2;;;;;;;19.17;100;98655.23;;;;
2021/08/20 19:34:09;;;;;;;7.7;4.6;;;;;;;18.97;100;98658.01;;;;
2021/08/20 19:44:09;;;;;;;7.8;4.1;;;;;;;18.84;100;98672.17;;;;
2021/08/20 19:54:09;;;;;;;10.8;5.7;;;;;;;18.68;100;98663.24;;;;
2021/08/20 20:04:09;;;;;;;6.6;3.7;;;;;;;18.55;100;98665.33;;;;
2021/08/20 20:14:08;;;;;;;7.5;5.2;;;;;;;18.47;100;98675.27;;;;
2021/08/20 20:24:10;;;;;;;7.4;5.2;;;;;;;18.34;100;98668.36;;;;
2021/08/20 20:34:08;;;;;;;6.9;4.6;;;;;;;18.24;100;98681.76;;;;
2021/08/20 20:44:08;;;;;;;8.1;5.5;;;;;;;18.12;100;98692.8;;;;
2021/08/20 20:54:08;;;;;;;8.2;4.6;;;;;;;17.88;100;98702.73;;;;
2021/08/20 21:04:08;;;;;;;11;5.5;;;;;;;17.77;100;98701.67;;;;
2021/08/20 21:14:07;;;;;;;14.9;5.9;;;;;;;17.74;100;98723.39;;;;
2021/08/20 21:24:07;;;;;;;9.4;7;;;;;;;17.8;100;98738.38;;;;
2021/08/20 21:34:07;;;;;;;10.3;7.5;;;;;;;17.89;100;98741.7;;;;
2021/08/20 21:44:07;;;;;;;8.4;7;;;;;;;17.85;100;98754.45;;;;
2021/08/20 21:54:06;;;;;;;10.4;6.3;;;;;;;17.8;100;98754.73;;;;
2021/08/20 22:04:06;;;;;;;9.3;5.7;;;;;;;17.77;100;98749.98;;;;
2021/08/20 22:14:06;;;;;;;13.2;10.2;;;;;;;17.78;100;98749.61;;;;
2021/08/20 22:24:06;;;;;;;13.5;10;;;;;;;17.82;100;98769.59;;;;
2021/08/20 22:34:06;;;;;;;13;7;;;;;;;17.8;100;98782.79;;;;
2021/08/20 22:44:05;;;;;;;8.4;5.4;;;;;;;17.86;100;98786.84;;;;
2021/08/20 22:54:05;;;;;;;7.9;5.4;;;;;;;17.87;100;98777.52;;;;
2021/08/20 23:04:05;;;;;;;9;5.2;;;;;;;17.96;100;98777.34;;;;
2021/08/20 23:14:05;;;;;;;11.5;6.9;;;;;;;17.95;100;98776.54;;;;
2021/08/20 23:24:04;;;;;;;8.6;5.5;;;;;;;17.86;100;98775.93;;;;
2021/08/20 23:34:04;;;;;;;11.6;6.7;;;;;;;17.83;100;98784.81;;;;
2021/08/20 23:44:04;;;;;;;9.3;6.2;;;;;;;17.8;100;98796.42;;;;
2021/08/20 23:54:04;;;;;;;7.9;5.5;;;;;;;17.73;100;98788.05;;;;
